PHNLPTSA

Guest
Details From PHNL - Honolulu Intl
To PTSA - Kosrae
Flight Number -
Tags Generated
Created
Modified
Stats Distance 2,469 nm / 4,573 km
Max Altitude 0 ft / 0 m
Waypoints 3
Social Downloads 0
Likes 0
Share VATSIM

Download

Looking for another format? Having issues loading an existing format? Contact us
Advertisement - Login to hide

Notes

Generated

Route

PHNL UKS PTSA

ID Type Via Altitude Latitude Longitude Leg Dist Tot Dist Heading (true) Name
O PHNL APT - 0 ft / 0 m 21.31833˚ -157.92332˚ - 0 nm - Honolulu Intl
UKS NDB - 0 ft / 0 m 5.35306˚ 162.95694˚ 2468 nm 2468 nm 253° / 243° KOSRAE NDB
O PTSA APT - 0 ft / 0 m 5.35247˚ 162.95188˚ 0 nm 2468 nm 263° / 263° -

Altitude Profile

Advertisement - Login to hide

Weather


0- 5 10 15 20 25 30 35+ Temperature / ° C

Clouds and Precipitation
Forecast for 2018-05-25 00:00 UTC. Updated 2 hours ago

Ground ~20,000 ft ~40,000 ft Winds

PHNL

Details ICAO PHNL (HNL)
Name Honolulu Intl
Region USA (Hawaii)
Timezone Pacific/Honolulu (UTC-10.0)
Stats Elevation 13 ft / 4 m (AMSL)
Location 21.319376° -157.921281°
Runways 4
Magnetic Variation 9.467° E

METAR

PHNL 250053Z 06020G26KT 10SM FEW026 SCT043 BKN060 29/18 A3004

Decode

TAF

PHNL 242334Z 2500/2606 06018G25KT P6SM FEW025 SCT050 SCT250 FM250500 05011KT P6SM FEW025 SCT050 SCT250 TEMPO 2505/2509 05010G18KT FM251900 06016G24KT P6SM FEW025 SCT050 FM260500 06011KT P6SM FEW025 SCT050

Decode

Departure Runways

ID Width Length Bearing (true) Bearing (mag) Surface Threshold Offset Overrun Length
04L 150 ft / 46 m 6,958 ft / 2,121 m 52.84° 43.37° Asphalt 0 ft / 0 m 215 ft / 66 m
04R 150 ft / 46 m 9,008 ft / 2,746 m 52.86° 43.39° Asphalt 0 ft / 0 m 200 ft / 61 m
08L 150 ft / 46 m 12,285 ft / 3,744 m 90.00° 80.53° Asphalt 0 ft / 0 m 1,000 ft / 305 m
08R 200 ft / 61 m 11,985 ft / 3,653 m 90.00° 80.53° Asphalt 0 ft / 0 m 700 ft / 213 m
22L 150 ft / 46 m 9,008 ft / 2,746 m 232.86° 223.39° Asphalt 0 ft / 0 m 215 ft / 66 m
22R 150 ft / 46 m 6,958 ft / 2,121 m 232.85° 223.38° Asphalt 0 ft / 0 m 0 ft / 0 m
26L 200 ft / 61 m 11,985 ft / 3,653 m 270.01° 260.54° Asphalt 0 ft / 0 m 700 ft / 213 m
26R 150 ft / 46 m 12,285 ft / 3,744 m 270.01° 260.54° Asphalt 0 ft / 0 m 655 ft / 200 m

PTSA

Details ICAO PTSA (KSA)
Name Kosrae
Region Federated States of Micronesia, Palau
Timezone Unknown (UTC+0.0)
Stats Elevation 11 ft / 3 m (AMSL)
Location 5.356922° 162.958403°
Runways 1
Magnetic Variation 7.145° E

METAR

PTSA 250050Z 04011KT 10SM BKN016TCU BKN130 OVC300 30/26 A2978 RMK CB DSNT NW TCU NE

Decode

TAF

TAF PTSA 242322Z 2500/2524 12008KT P6SM VCSH SCT018 BKN130 TEMPO 2502/2506 4SM SHRA SCT018 OVC030

Decode

Destination Runways

ID Width Length Bearing (true) Bearing (mag) Surface Threshold Offset Overrun Length
05 151 ft / 46 m 5,749 ft / 1,752 m 55.56° 48.41° Asphalt 0 ft / 0 m 207 ft / 63 m
23 151 ft / 46 m 5,749 ft / 1,752 m 235.56° 228.41° Asphalt 0 ft / 0 m 207 ft / 63 m

Popular Alternatives